Time;durP1;ratioP1;P1;durP2;ratioP2;P2;SDS_P1;SDS_P2;PMS_P1;PMS_P2;Temp;Humidity;BMP_temperature;BMP_pressure;BME280_temperature;BME280_humidity;BME280_pressure;Samples;Min_cycle;Max_cycle;Signal;HPM_P1;HPM_P2
2021/06/08 00:03:52;;;;;;;7.23;3.57;;;;;;;;;;10533544;28;20196;-69
2021/06/08 00:08:54;;;;;;;7.23;3.70;;;;;;;;;;10530360;28;20294;-69
2021/06/08 00:13:57;;;;;;;8.60;4.87;;;;;;;;;;10525846;28;20238;-68
2021/06/08 00:19:01;;;;;;;7.60;4.13;;;;;;;;;;10533195;28;20216;-68
2021/06/08 00:24:03;;;;;;;7.90;4.90;;;;;;;;;;10541980;28;20261;-69
2021/06/08 00:29:05;;;;;;;8.47;4.87;;;;;;;;;;10531364;28;20191;-68
2021/06/08 00:34:09;;;;;;;8.90;5.07;;;;;;;;;;10532292;28;20277;-69
2021/06/08 00:39:11;;;;;;;8.30;5.43;;;;;;;;;;10522991;28;20667;-68
2021/06/08 00:44:14;;;;;;;8.13;5.40;;;;;;;;;;10527489;28;20241;-68
2021/06/08 00:49:17;;;;;;;9.40;5.40;;;;;;;;;;10531132;28;20219;-68
2021/06/08 00:54:19;;;;;;;9.97;5.53;;;;;;;;;;10525071;28;20211;-68
2021/06/08 00:59:21;;;;;;;8.73;5.87;;;;;;;;;;10525188;28;20259;-68
2021/06/08 01:04:25;;;;;;;9.57;5.50;;;;;;;;;;10529851;28;20235;-69
2021/06/08 01:09:27;;;;;;;9.47;6.13;;;;;;;;;;10521522;28;20198;-68
2021/06/08 01:14:29;;;;;;;9.73;5.63;;;;;;;;;;10529149;28;20273;-68
2021/06/08 01:19:32;;;;;;;9.37;6.07;;;;;;;;;;10522824;28;20196;-67
2021/06/08 01:24:36;;;;;;;8.43;5.50;;;;;;;;;;10516407;28;20227;-69
2021/06/08 01:29:39;;;;;;;8.97;5.70;;;;;;;;;;10529239;28;20199;-67
2021/06/08 01:34:42;;;;;;;8.33;5.20;;;;;;;;;;10532134;28;20234;-68
2021/06/08 01:39:46;;;;;;;8.67;5.30;;;;;;;;;;10527506;28;20200;-69
2021/06/08 01:44:49;;;;;;;9.37;5.70;;;;;;;;;;10519127;28;20246;-68
2021/06/08 01:49:51;;;;;;;9.60;5.87;;;;;;;;;;10529475;28;20199;-67
2021/06/08 01:54:57;;;;;;;8.33;5.20;;;;;;;;;;10521104;28;20212;-67
2021/06/08 02:00:02;;;;;;;8.93;5.47;;;;;;;;;;10550096;27;20290;-69
2021/06/08 02:05:05;;;;;;;8.53;5.37;;;;;;;;;;10522995;28;20708;-69
2021/06/08 02:10:23;;;;;;;8.90;5.10;;;;;;;;;;10529882;28;20234;-69
2021/06/08 02:15:28;;;;;;;8.23;5.23;;;;;;;;;;10525789;28;20241;-68
2021/06/08 02:20:32;;;;;;;8.53;5.37;;;;;;;;;;10529395;28;20236;-68
2021/06/08 02:25:36;;;;;;;8.60;5.40;;;;;;;;;;10522201;28;20218;-67
2021/06/08 02:30:38;;;;;;;9.30;5.20;;;;;;;;;;10521200;28;20203;-67
2021/06/08 02:35:41;;;;;;;9.73;5.57;;;;;;;;;;10527022;28;20239;-68
2021/06/08 02:40:45;;;;;;;7.70;5.07;;;;;;;;;;10512339;28;20223;-67
2021/06/08 02:45:47;;;;;;;8.97;5.00;;;;;;;;;;10525241;28;20315;-69
2021/06/08 02:50:50;;;;;;;10.23;4.83;;;;;;;;;;10518660;28;20625;-69
2021/06/08 02:55:53;;;;;;;8.47;5.30;;;;;;;;;;10521869;28;20235;-68
2021/06/08 03:00:55;;;;;;;8.90;5.67;;;;;;;;;;10525276;28;20231;-68
2021/06/08 03:06:00;;;;;;;9.40;5.07;;;;;;;;;;10520819;28;20214;-68
2021/06/08 03:11:07;;;;;;;8.70;5.20;;;;;;;;;;10526586;28;20206;-69
2021/06/08 03:16:10;;;;;;;9.60;6.07;;;;;;;;;;10522932;28;20216;-69
2021/06/08 03:21:14;;;;;;;10.07;5.50;;;;;;;;;;10523636;28;20620;-68
2021/06/08 03:26:19;;;;;;;9.67;5.33;;;;;;;;;;10521085;28;20315;-68
2021/06/08 03:31:21;;;;;;;8.77;5.37;;;;;;;;;;10525195;28;20279;-68
2021/06/08 03:36:26;;;;;;;8.60;5.50;;;;;;;;;;10522590;28;20203;-68
2021/06/08 03:41:30;;;;;;;10.20;5.37;;;;;;;;;;10510540;28;20201;-69
2021/06/08 03:46:34;;;;;;;9.83;5.80;;;;;;;;;;10520618;28;20297;-69
2021/06/08 03:51:37;;;;;;;9.07;5.70;;;;;;;;;;10528022;28;20280;-67
2021/06/08 03:56:42;;;;;;;11.20;5.67;;;;;;;;;;10530659;28;20239;-69
2021/06/08 04:01:45;;;;;;;8.57;4.97;;;;;;;;;;10520499;28;20211;-68
2021/06/08 04:06:47;;;;;;;9.03;5.60;;;;;;;;;;10520714;28;20243;-68
2021/06/08 04:11:51;;;;;;;8.70;4.97;;;;;;;;;;10531362;28;20306;-69
2021/06/08 04:17:15;;;;;;;8.63;5.30;;;;;;;;;;10528241;28;20287;-69
2021/06/08 04:22:27;;;;;;;9.43;4.80;;;;;;;;;;10526465;28;20211;-68
2021/06/08 04:27:31;;;;;;;9.20;4.90;;;;;;;;;;10529551;28;20298;-69
2021/06/08 04:32:33;;;;;;;8.83;5.13;;;;;;;;;;10532060;28;20341;-68
2021/06/08 04:37:35;;;;;;;9.43;5.13;;;;;;;;;;10520864;28;20299;-69
2021/06/08 04:42:41;;;;;;;10.03;5.23;;;;;;;;;;10527779;28;20239;-68
2021/06/08 04:47:43;;;;;;;10.10;5.53;;;;;;;;;;10527336;28;20220;-69
2021/06/08 04:52:55;;;;;;;8.70;5.20;;;;;;;;;;10518065;28;20580;-68
2021/06/08 04:57:59;;;;;;;9.07;5.20;;;;;;;;;;10515589;28;20220;-69
2021/06/08 05:03:05;;;;;;;7.97;4.80;;;;;;;;;;10526567;28;20253;-69
2021/06/08 05:08:09;;;;;;;8.20;4.40;;;;;;;;;;10511102;28;20228;-69
2021/06/08 05:13:13;;;;;;;9.20;4.80;;;;;;;;;;10526758;28;20204;-69
2021/06/08 05:18:16;;;;;;;9.20;5.40;;;;;;;;;;10523784;28;20303;-68
2021/06/08 05:23:18;;;;;;;9.93;5.37;;;;;;;;;;10524262;28;20485;-70
2021/06/08 05:28:22;;;;;;;9.50;5.60;;;;;;;;;;10521783;28;20261;-70
2021/06/08 05:33:24;;;;;;;8.97;5.43;;;;;;;;;;10526492;28;20223;-69
2021/06/08 05:38:30;;;;;;;9.93;5.70;;;;;;;;;;10517614;28;20478;-70
2021/06/08 05:43:33;;;;;;;10.70;5.93;;;;;;;;;;10516635;28;20618;-69
2021/06/08 05:48:36;;;;;;;10.10;6.70;;;;;;;;;;10527855;28;20243;-69
2021/06/08 05:53:39;;;;;;;9.67;6.10;;;;;;;;;;10525871;28;20192;-69
2021/06/08 05:58:42;;;;;;;11.27;6.90;;;;;;;;;;10528509;28;20224;-68
2021/06/08 06:03:44;;;;;;;10.83;6.67;;;;;;;;;;10524081;28;20257;-68
2021/06/08 06:08:47;;;;;;;10.77;6.83;;;;;;;;;;10522341;28;20741;-68
2021/06/08 06:13:54;;;;;;;12.27;6.50;;;;;;;;;;10515130;28;20544;-69
2021/06/08 06:18:56;;;;;;;10.67;6.03;;;;;;;;;;10529293;28;20563;-69
2021/06/08 06:23:59;;;;;;;13.23;6.87;;;;;;;;;;10507664;28;20192;-68
2021/06/08 06:29:18;;;;;;;10.10;6.83;;;;;;;;;;10500512;28;20700;-68
2021/06/08 06:34:22;;;;;;;11.43;7.47;;;;;;;;;;10526323;28;20211;-68
2021/06/08 06:39:26;;;;;;;11.37;7.20;;;;;;;;;;10524448;28;20290;-68
2021/06/08 06:44:32;;;;;;;13.20;7.27;;;;;;;;;;10509868;28;20232;-68
2021/06/08 06:49:35;;;;;;;11.73;7.50;;;;;;;;;;10525996;28;20299;-68
2021/06/08 06:54:37;;;;;;;13.63;7.83;;;;;;;;;;10517330;28;20291;-68
2021/06/08 06:59:40;;;;;;;12.20;7.83;;;;;;;;;;10520984;28;20695;-69
2021/06/08 07:04:43;;;;;;;11.37;7.50;;;;;;;;;;10517117;28;20211;-69
2021/06/08 07:09:45;;;;;;;12.20;8.33;;;;;;;;;;10519789;28;20667;-69
2021/06/08 07:14:49;;;;;;;11.87;8.33;;;;;;;;;;10519224;28;20276;-69
2021/06/08 07:19:55;;;;;;;12.57;9.07;;;;;;;;;;10520180;28;20948;-69
2021/06/08 07:24:57;;;;;;;12.43;8.50;;;;;;;;;;10518127;28;20277;-68
2021/06/08 07:30:01;;;;;;;12.20;9.27;;;;;;;;;;10512389;28;20195;-68
2021/06/08 07:35:07;;;;;;;10.83;8.17;;;;;;;;;;10510920;28;20212;-69
2021/06/08 07:40:11;;;;;;;13.13;9.37;;;;;;;;;;10507640;28;20192;-68
2021/06/08 07:45:18;;;;;;;13.70;9.40;;;;;;;;;;10525722;28;20223;-69
2021/06/08 07:50:21;;;;;;;12.82;9.48;;;;;;;;;;10526192;28;20206;-68
2021/06/08 07:55:23;;;;;;;13.30;9.27;;;;;;;;;;10526525;28;20756;-70
2021/06/08 08:00:27;;;;;;;12.05;9.38;;;;;;;;;;10520009;28;20291;-69
2021/06/08 08:05:29;;;;;;;13.10;10.20;;;;;;;;;;10529901;28;20679;-69
2021/06/08 08:10:31;;;;;;;12.20;9.77;;;;;;;;;;10530877;28;20283;-69
2021/06/08 08:15:35;;;;;;;11.15;9.13;;;;;;;;;;10534095;28;20214;-70
2021/06/08 08:20:41;;;;;;;13.40;9.73;;;;;;;;;;10530984;28;20239;-71
2021/06/08 08:25:44;;;;;;;12.82;9.32;;;;;;;;;;10522765;28;20224;-71
2021/06/08 08:30:47;;;;;;;10.75;9.40;;;;;;;;;;10524575;28;20192;-72
2021/06/08 08:35:49;;;;;;;10.93;9.48;;;;;;;;;;10529361;28;20295;-70
2021/06/08 08:40:51;;;;;;;11.75;10.52;;;;;;;;;;10525546;28;20212;-70
2021/06/08 08:46:13;;;;;;;13.93;11.30;;;;;;;;;;10518045;28;20212;-71
2021/06/08 08:51:16;;;;;;;12.77;11.48;;;;;;;;;;10523176;28;20257;-70
2021/06/08 08:56:18;;;;;;;11.68;10.48;;;;;;;;;;10520749;28;20701;-70
2021/06/08 09:01:22;;;;;;;11.07;9.77;;;;;;;;;;10514015;28;20198;-70
2021/06/08 09:06:24;;;;;;;11.73;9.90;;;;;;;;;;10520641;28;20212;-70
2021/06/08 09:11:27;;;;;;;10.75;9.05;;;;;;;;;;10521813;28;20885;-70
2021/06/08 09:16:31;;;;;;;11.25;10.00;;;;;;;;;;10523879;28;20207;-70
2021/06/08 09:21:34;;;;;;;12.32;10.80;;;;;;;;;;10521459;28;20202;-70
2021/06/08 09:26:48;;;;;;;11.75;10.60;;;;;;;;;;10516676;28;20351;-70
2021/06/08 09:32:10;;;;;;;13.38;11.93;;;;;;;;;;10524140;28;20191;-69
2021/06/08 09:37:12;;;;;;;13.02;11.20;;;;;;;;;;10522741;28;20215;-71
2021/06/08 09:42:18;;;;;;;11.65;10.18;;;;;;;;;;10522916;28;20237;-69
2021/06/08 09:47:42;;;;;;;12.95;11.65;;;;;;;;;;10523565;28;20223;-70
2021/06/08 09:52:48;;;;;;;12.23;10.93;;;;;;;;;;10515629;28;20195;-70
2021/06/08 09:57:50;;;;;;;11.80;10.60;;;;;;;;;;10524847;28;20226;-70
2021/06/08 10:02:54;;;;;;;11.32;9.20;;;;;;;;;;10520806;28;20192;-70
2021/06/08 10:08:05;;;;;;;13.07;11.77;;;;;;;;;;10518598;28;20212;-71
2021/06/08 10:13:08;;;;;;;13.10;11.70;;;;;;;;;;10522868;28;20207;-71
2021/06/08 10:18:11;;;;;;;11.85;10.60;;;;;;;;;;10521831;28;20216;-71
2021/06/08 10:23:21;;;;;;;10.70;9.32;;;;;;;;;;10522670;28;20245;-70
2021/06/08 10:28:23;;;;;;;11.15;10.02;;;;;;;;;;10519722;28;20203;-70
2021/06/08 10:33:27;;;;;;;14.13;12.77;;;;;;;;;;10521568;28;20247;-69
2021/06/08 10:38:46;;;;;;;12.75;11.45;;;;;;;;;;10522836;28;20212;-69
2021/06/08 10:43:49;;;;;;;12.57;9.93;;;;;;;;;;10514959;28;20226;-70
2021/06/08 10:48:52;;;;;;;12.75;11.35;;;;;;;;;;10519966;28;20191;-69
2021/06/08 10:53:56;;;;;;;11.52;9.30;;;;;;;;;;10511757;28;20283;-69
2021/06/08 10:58:59;;;;;;;10.70;9.57;;;;;;;;;;10514185;28;20223;-69
2021/06/08 11:04:03;;;;;;;9.25;8.32;;;;;;;;;;10519747;28;20705;-68
2021/06/08 11:09:12;;;;;;;8.10;6.80;;;;;;;;;;10518512;28;20670;-69
2021/06/08 11:14:33;;;;;;;8.77;7.38;;;;;;;;;;10516830;28;20239;-68
2021/06/08 11:19:53;;;;;;;8.85;6.68;;;;;;;;;;10530377;28;20273;-69
2021/06/08 11:24:55;;;;;;;7.75;6.45;;;;;;;;;;10522609;28;20268;-68
2021/06/08 11:29:59;;;;;;;9.35;7.35;;;;;;;;;;10515161;28;20695;-69
2021/06/08 11:35:07;;;;;;;8.68;6.80;;;;;;;;;;10535522;28;20211;-70
2021/06/08 11:40:24;;;;;;;9.38;6.90;;;;;;;;;;10524475;28;20227;-70
2021/06/08 11:45:26;;;;;;;8.07;6.47;;;;;;;;;;10527204;28;20233;-69
2021/06/08 11:50:41;;;;;;;9.57;6.22;;;;;;;;;;10519210;28;20198;-70
2021/06/08 11:55:45;;;;;;;8.85;7.00;;;;;;;;;;10520306;28;20869;-70
2021/06/08 12:00:51;;;;;;;9.02;6.65;;;;;;;;;;10528336;28;20250;-67
2021/06/08 12:05:55;;;;;;;8.80;6.43;;;;;;;;;;10529935;28;20223;-69
2021/06/08 12:10:58;;;;;;;8.73;7.10;;;;;;;;;;10522757;28;20192;-69
2021/06/08 12:16:00;;;;;;;9.05;6.78;;;;;;;;;;10530291;27;20306;-69
2021/06/08 12:21:09;;;;;;;9.13;6.28;;;;;;;;;;10513385;28;20196;-69
2021/06/08 12:26:11;;;;;;;9.05;6.82;;;;;;;;;;10521623;28;20216;-71
2021/06/08 12:31:14;;;;;;;8.73;7.10;;;;;;;;;;10517008;28;20655;-70
2021/06/08 12:36:17;;;;;;;10.75;7.53;;;;;;;;;;10531126;28;20219;-69
2021/06/08 12:41:25;;;;;;;9.05;7.30;;;;;;;;;;10517308;28;20207;-72
2021/06/08 12:46:29;;;;;;;10.68;7.35;;;;;;;;;;10523082;28;20795;-69
2021/06/08 12:51:32;;;;;;;10.35;6.85;;;;;;;;;;10529506;28;20624;-70
2021/06/08 12:56:35;;;;;;;10.05;7.03;;;;;;;;;;10510725;28;20534;-69
2021/06/08 13:01:37;;;;;;;8.05;6.22;;;;;;;;;;10515312;28;20224;-68
2021/06/08 13:06:41;;;;;;;9.23;6.45;;;;;;;;;;10527947;28;20292;-69
2021/06/08 13:11:43;;;;;;;8.70;6.50;;;;;;;;;;10513032;28;20196;-68
2021/06/08 13:16:45;;;;;;;9.45;6.05;;;;;;;;;;10522026;28;20243;-70
2021/06/08 13:21:49;;;;;;;7.95;5.70;;;;;;;;;;10522717;28;20322;-70
2021/06/08 13:26:52;;;;;;;8.35;5.72;;;;;;;;;;10522113;28;20830;-70
2021/06/08 13:31:55;;;;;;;7.45;5.68;;;;;;;;;;10521763;28;20191;-71
2021/06/08 13:36:59;;;;;;;7.32;5.63;;;;;;;;;;10523615;28;20212;-69
2021/06/08 13:42:11;;;;;;;8.68;5.90;;;;;;;;;;10511283;28;20194;-69
2021/06/08 13:47:13;;;;;;;8.05;5.10;;;;;;;;;;10520732;28;20552;-69
2021/06/08 13:52:17;;;;;;;7.60;5.80;;;;;;;;;;10518636;28;20237;-69
2021/06/08 13:57:27;;;;;;;8.75;5.32;;;;;;;;;;10519309;28;20275;-69
2021/06/08 14:02:42;;;;;;;9.30;4.63;;;;;;;;;;10511436;28;20270;-70
2021/06/08 14:07:46;;;;;;;6.53;4.43;;;;;;;;;;10519041;28;20546;-70
2021/06/08 14:12:59;;;;;;;7.25;4.60;;;;;;;;;;10516303;28;20203;-70
2021/06/08 14:18:01;;;;;;;9.30;4.60;;;;;;;;;;10522938;28;20231;-70
2021/06/08 14:23:05;;;;;;;6.88;4.65;;;;;;;;;;10521688;28;20246;-69
2021/06/08 14:28:07;;;;;;;6.68;4.13;;;;;;;;;;10517881;28;20616;-71
2021/06/08 14:33:09;;;;;;;6.10;4.10;;;;;;;;;;10522656;28;20973;-70
2021/06/08 14:38:12;;;;;;;6.82;4.32;;;;;;;;;;10511034;28;20204;-69
2021/06/08 14:43:14;;;;;;;7.38;3.70;;;;;;;;;;10529446;28;20260;-70
2021/06/08 14:48:16;;;;;;;6.70;4.68;;;;;;;;;;10513045;28;20283;-70
2021/06/08 14:53:20;;;;;;;5.78;3.95;;;;;;;;;;10512877;28;20203;-69
2021/06/08 14:58:22;;;;;;;7.35;4.68;;;;;;;;;;10522066;28;20207;-69
2021/06/08 15:03:24;;;;;;;8.25;4.30;;;;;;;;;;10518151;28;20191;-67
2021/06/08 15:08:27;;;;;;;6.68;4.55;;;;;;;;;;10516022;28;20753;-68
2021/06/08 15:13:29;;;;;;;7.10;4.10;;;;;;;;;;10512684;28;20207;-69
2021/06/08 15:18:32;;;;;;;6.13;4.40;;;;;;;;;;10508979;28;20258;-69
2021/06/08 15:23:35;;;;;;;6.05;4.63;;;;;;;;;;10517493;28;20321;-70
2021/06/08 15:28:47;;;;;;;7.30;4.80;;;;;;;;;;10518937;28;20291;-69
2021/06/08 15:33:50;;;;;;;6.95;4.90;;;;;;;;;;10512079;28;20203;-69
2021/06/08 15:38:53;;;;;;;7.57;4.78;;;;;;;;;;10514368;28;20219;-68
2021/06/08 15:43:55;;;;;;;7.50;5.10;;;;;;;;;;10507928;28;20191;-67
2021/06/08 15:48:57;;;;;;;6.80;4.70;;;;;;;;;;10518829;28;20267;-69
2021/06/08 15:54:01;;;;;;;6.93;4.63;;;;;;;;;;10514913;28;20231;-67
2021/06/08 15:59:05;;;;;;;8.50;4.80;;;;;;;;;;10515597;28;20204;-69
2021/06/08 16:04:07;;;;;;;8.90;4.90;;;;;;;;;;10525657;28;20195;-68
2021/06/08 16:09:11;;;;;;;7.72;5.03;;;;;;;;;;10529541;28;20202;-69
2021/06/08 16:14:13;;;;;;;7.28;5.10;;;;;;;;;;10526566;28;20696;-69
2021/06/08 16:19:17;;;;;;;6.68;4.95;;;;;;;;;;10526560;28;20311;-70
2021/06/08 16:24:20;;;;;;;8.25;5.15;;;;;;;;;;10529078;28;20239;-67
2021/06/08 16:29:23;;;;;;;7.30;5.05;;;;;;;;;;10516579;28;20191;-70
2021/06/08 16:34:25;;;;;;;8.35;5.30;;;;;;;;;;10516175;28;20287;-69
2021/06/08 16:39:28;;;;;;;8.23;5.32;;;;;;;;;;10527762;28;20286;-69
2021/06/08 16:44:30;;;;;;;9.18;5.50;;;;;;;;;;10528356;28;20768;-68
2021/06/08 16:49:32;;;;;;;9.18;5.85;;;;;;;;;;10528724;28;20533;-68
2021/06/08 16:54:37;;;;;;;9.80;5.50;;;;;;;;;;10524004;28;20238;-69
2021/06/08 16:59:39;;;;;;;8.75;6.68;;;;;;;;;;10528259;28;20207;-67
2021/06/08 17:04:41;;;;;;;9.07;6.15;;;;;;;;;;10523150;28;20238;-68
2021/06/08 17:09:46;;;;;;;8.40;5.65;;;;;;;;;;10532451;28;20675;-69
2021/06/08 17:14:48;;;;;;;8.82;6.57;;;;;;;;;;10526544;28;20678;-68
2021/06/08 17:19:50;;;;;;;7.85;5.28;;;;;;;;;;10518766;28;20235;-69
2021/06/08 17:24:53;;;;;;;9.15;6.57;;;;;;;;;;10517422;28;20220;-68
2021/06/08 17:29:55;;;;;;;8.38;6.25;;;;;;;;;;10519112;28;20628;-69
2021/06/08 17:34:57;;;;;;;10.13;7.05;;;;;;;;;;10532312;28;20216;-68
2021/06/08 17:40:01;;;;;;;9.20;6.88;;;;;;;;;;10520167;28;20292;-68
2021/06/08 17:45:03;;;;;;;9.85;7.18;;;;;;;;;;10526420;28;20341;-70
2021/06/08 17:50:06;;;;;;;9.73;6.93;;;;;;;;;;10531240;28;20194;-68
2021/06/08 17:55:10;;;;;;;8.40;6.18;;;;;;;;;;10520864;28;20204;-67
2021/06/08 18:00:13;;;;;;;9.82;7.05;;;;;;;;;;10524504;28;20283;-67
2021/06/08 18:05:15;;;;;;;10.05;7.28;;;;;;;;;;10515252;28;20302;-68
2021/06/08 18:10:18;;;;;;;9.50;6.80;;;;;;;;;;10511027;28;20210;-68
2021/06/08 18:15:20;;;;;;;10.33;7.93;;;;;;;;;;10525919;28;20215;-69
2021/06/08 18:20:24;;;;;;;10.77;7.10;;;;;;;;;;10520282;28;20701;-69
2021/06/08 18:25:27;;;;;;;9.87;7.50;;;;;;;;;;10525467;28;20528;-68
2021/06/08 18:30:29;;;;;;;10.07;7.83;;;;;;;;;;10515806;28;20188;-67
2021/06/08 18:35:32;;;;;;;11.10;6.67;;;;;;;;;;10513175;28;20243;-70
2021/06/08 18:40:36;;;;;;;10.50;7.67;;;;;;;;;;10519665;28;20207;-68
2021/06/08 18:45:40;;;;;;;10.20;6.93;;;;;;;;;;10513894;28;21477;-67
2021/06/08 18:50:42;;;;;;;10.90;7.50;;;;;;;;;;10511904;28;20214;-68
2021/06/08 18:55:45;;;;;;;10.93;7.20;;;;;;;;;;10520482;28;20214;-69
2021/06/08 19:00:48;;;;;;;9.23;7.30;;;;;;;;;;10520183;28;20581;-68
2021/06/08 19:05:50;;;;;;;11.47;7.67;;;;;;;;;;10525952;28;20211;-68
2021/06/08 19:10:54;;;;;;;11.03;7.67;;;;;;;;;;10522107;28;20196;-68
2021/06/08 19:15:56;;;;;;;10.10;7.20;;;;;;;;;;10519599;28;20294;-69
2021/06/08 19:20:58;;;;;;;13.00;8.80;;;;;;;;;;10523929;28;20239;-69
2021/06/08 19:26:02;;;;;;;11.80;8.00;;;;;;;;;;10515182;28;20316;-69
2021/06/08 19:31:04;;;;;;;10.87;7.80;;;;;;;;;;10524954;28;20670;-68
2021/06/08 19:36:09;;;;;;;16.90;12.40;;;;;;;;;;10531026;28;20218;-67
2021/06/08 19:41:14;;;;;;;12.73;8.57;;;;;;;;;;10528269;28;20678;-67
2021/06/08 19:46:16;;;;;;;12.10;8.07;;;;;;;;;;10533459;28;20246;-68
2021/06/08 19:51:19;;;;;;;19.60;14.07;;;;;;;;;;10528390;28;20270;-70
2021/06/08 19:56:24;;;;;;;11.80;8.83;;;;;;;;;;10532984;28;20290;-68
2021/06/08 20:01:26;;;;;;;12.43;8.73;;;;;;;;;;10528628;28;20204;-69
2021/06/08 20:06:30;;;;;;;11.43;8.93;;;;;;;;;;10528103;28;20224;-68
2021/06/08 20:11:33;;;;;;;14.50;10.40;;;;;;;;;;10533288;28;20606;-68
2021/06/08 20:16:36;;;;;;;13.90;9.50;;;;;;;;;;10526936;28;20208;-67
2021/06/08 20:21:38;;;;;;;14.93;10.50;;;;;;;;;;10529720;28;20290;-70
2021/06/08 20:26:41;;;;;;;12.03;9.40;;;;;;;;;;10523194;28;20208;-68
2021/06/08 20:31:43;;;;;;;13.77;10.00;;;;;;;;;;10528491;28;20677;-68
2021/06/08 20:36:45;;;;;;;13.90;9.67;;;;;;;;;;10532386;28;20252;-67
2021/06/08 20:41:49;;;;;;;14.10;11.17;;;;;;;;;;10526585;28;20292;-67
2021/06/08 20:46:51;;;;;;;21.30;16.13;;;;;;;;;;10522093;28;20216;-70
2021/06/08 20:51:53;;;;;;;16.80;11.17;;;;;;;;;;10537915;28;20245;-68
2021/06/08 20:56:56;;;;;;;14.07;10.60;;;;;;;;;;10518452;28;20575;-69
2021/06/08 21:01:59;;;;;;;14.27;9.97;;;;;;;;;;10521447;28;20285;-68
2021/06/08 21:07:01;;;;;;;12.47;9.77;;;;;;;;;;10516674;28;20299;-69
2021/06/08 21:12:05;;;;;;;13.77;9.87;;;;;;;;;;10520736;28;20210;-69
2021/06/08 21:17:07;;;;;;;13.67;10.13;;;;;;;;;;10528757;28;20212;-67
2021/06/08 21:22:10;;;;;;;15.87;10.30;;;;;;;;;;10513901;28;20208;-67
2021/06/08 21:27:13;;;;;;;13.83;10.73;;;;;;;;;;10528930;28;20691;-68
2021/06/08 21:32:15;;;;;;;14.87;10.90;;;;;;;;;;10528542;28;20186;-69
2021/06/08 21:37:17;;;;;;;13.10;9.97;;;;;;;;;;10522867;28;20876;-68
2021/06/08 21:42:21;;;;;;;15.53;10.60;;;;;;;;;;10522467;28;20273;-68
2021/06/08 21:47:23;;;;;;;15.27;11.20;;;;;;;;;;10528121;28;20280;-71
2021/06/08 21:52:26;;;;;;;14.03;10.83;;;;;;;;;;10524133;28;20196;-71
2021/06/08 21:57:30;;;;;;;15.90;11.50;;;;;;;;;;10526071;28;20223;-69
2021/06/08 22:02:32;;;;;;;14.17;11.10;;;;;;;;;;10521739;28;20212;-73
2021/06/08 22:07:35;;;;;;;15.37;11.50;;;;;;;;;;10524299;28;20326;-69
2021/06/08 22:12:39;;;;;;;16.50;12.27;;;;;;;;;;10529380;28;20252;-68
2021/06/08 22:17:41;;;;;;;15.83;11.50;;;;;;;;;;10519584;28;20631;-66
2021/06/08 22:22:44;;;;;;;15.43;11.40;;;;;;;;;;10522005;28;20226;-67
2021/06/08 22:27:47;;;;;;;14.47;10.93;;;;;;;;;;10516872;28;20689;-68
2021/06/08 22:32:50;;;;;;;15.60;11.27;;;;;;;;;;10525401;28;20198;-67
2021/06/08 22:37:52;;;;;;;16.13;11.30;;;;;;;;;;10517338;28;20706;-67
2021/06/08 22:42:56;;;;;;;15.00;11.63;;;;;;;;;;10516019;28;20215;-69
2021/06/08 22:47:58;;;;;;;17.50;11.90;;;;;;;;;;10521517;28;20265;-67
2021/06/08 22:53:00;;;;;;;16.20;12.13;;;;;;;;;;10528158;28;20248;-69
2021/06/08 22:58:04;;;;;;;16.03;11.53;;;;;;;;;;10526515;28;20588;-66
2021/06/08 23:03:06;;;;;;;14.50;11.00;;;;;;;;;;10518064;28;20239;-65
2021/06/08 23:08:08;;;;;;;14.87;11.63;;;;;;;;;;10519042;28;20306;-68
2021/06/08 23:13:11;;;;;;;14.13;11.17;;;;;;;;;;10532633;28;20282;-67
2021/06/08 23:18:14;;;;;;;15.27;11.60;;;;;;;;;;10527042;28;20215;-68
2021/06/08 23:23:16;;;;;;;16.53;12.20;;;;;;;;;;10530339;28;20720;-67
2021/06/08 23:28:19;;;;;;;14.80;11.80;;;;;;;;;;10525207;28;20863;-67
2021/06/08 23:33:25;;;;;;;15.90;12.03;;;;;;;;;;10525778;28;20253;-70
2021/06/08 23:38:27;;;;;;;16.00;11.67;;;;;;;;;;10521242;28;20212;-68
2021/06/08 23:43:30;;;;;;;15.10;11.23;;;;;;;;;;10533499;28;20203;-67
2021/06/08 23:48:32;;;;;;;15.23;11.57;;;;;;;;;;10528964;28;20306;-70
2021/06/08 23:53:34;;;;;;;14.30;10.67;;;;;;;;;;10530862;28;20296;-68
2021/06/08 23:58:38;;;;;;;16.57;11.13;;;;;;;;;;10528865;28;20212;-68
